createdAt,value
2023-01-07T00:02:52.978Z,9.55
2023-01-07T00:07:54.202Z,9.58
2023-01-07T00:12:55.461Z,9.61
2023-01-07T00:17:56.679Z,9.63
2023-01-07T00:22:57.895Z,9.65
2023-01-07T00:27:59.097Z,9.66
2023-01-07T00:33:05.074Z,9.65
2023-01-07T00:38:06.418Z,9.66
2023-01-07T00:43:07.556Z,9.64
2023-01-07T00:48:08.702Z,9.64
2023-01-07T00:53:09.912Z,9.65
2023-01-07T00:58:11.144Z,9.66
2023-01-07T01:03:12.376Z,9.64
2023-01-07T01:08:13.527Z,9.65
2023-01-07T01:13:15.745Z,9.63
2023-01-07T01:18:18.547Z,9.64
2023-01-07T01:23:19.785Z,9.67
2023-01-07T01:28:21.000Z,9.69
2023-01-07T01:33:22.170Z,9.68
2023-01-07T01:38:23.377Z,9.68
2023-01-07T01:43:24.560Z,9.66
2023-01-07T01:48:25.787Z,9.64
2023-01-07T01:53:26.995Z,9.63
2023-01-07T01:58:28.201Z,9.61
2023-01-07T02:03:29.424Z,9.59
2023-01-07T02:08:30.678Z,9.58
2023-01-07T02:13:31.870Z,9.61
2023-01-07T02:18:33.063Z,9.61
2023-01-07T02:23:34.245Z,9.60
2023-01-07T02:28:35.427Z,9.61
2023-01-07T02:33:36.628Z,9.60
2023-01-07T02:38:37.757Z,9.57
2023-01-07T02:43:38.959Z,9.54
2023-01-07T02:48:40.146Z,9.53
2023-01-07T02:53:41.343Z,9.52
2023-01-07T02:58:42.513Z,9.50
2023-01-07T03:03:43.716Z,9.49
2023-01-07T03:08:44.988Z,9.43
2023-01-07T03:13:46.150Z,9.36
2023-01-07T03:18:47.363Z,9.30
2023-01-07T03:23:48.527Z,9.25
2023-01-07T03:28:49.751Z,9.19
2023-01-07T03:33:50.909Z,9.13
2023-01-07T03:38:52.085Z,9.12
2023-01-07T03:43:53.299Z,9.04
2023-01-07T03:48:54.459Z,8.93
2023-01-07T03:53:55.616Z,8.84
2023-01-07T03:58:56.807Z,8.78
2023-01-07T04:03:58.040Z,8.78
2023-01-07T04:08:59.314Z,8.80
2023-01-07T04:14:00.864Z,8.82
2023-01-07T04:19:02.116Z,8.79
2023-01-07T04:24:03.301Z,8.75
2023-01-07T04:29:04.537Z,8.74
2023-01-07T04:34:05.716Z,8.75
2023-01-07T04:39:06.946Z,8.84
2023-01-07T04:44:08.161Z,8.94
2023-01-07T04:49:09.397Z,9.01
2023-01-07T04:54:10.594Z,9.08
2023-01-07T04:59:11.806Z,9.12
2023-01-07T05:04:13.084Z,9.12
2023-01-07T05:09:14.266Z,9.13
2023-01-07T05:14:15.430Z,9.17
2023-01-07T05:19:16.665Z,9.20
2023-01-07T05:24:17.868Z,9.18
2023-01-07T05:29:19.029Z,9.18
2023-01-07T05:34:20.226Z,9.18
2023-01-07T05:39:21.430Z,9.17
2023-01-07T05:44:22.632Z,9.17
2023-01-07T05:49:23.806Z,9.20
2023-01-07T05:54:24.977Z,9.20
2023-01-07T05:59:26.180Z,9.21
2023-01-07T06:04:27.380Z,9.23
2023-01-07T06:09:29.856Z,9.24
2023-01-07T06:14:31.108Z,9.24
2023-01-07T06:19:32.313Z,9.25
2023-01-07T06:24:33.477Z,9.24
2023-01-07T06:29:34.661Z,9.24
2023-01-07T06:34:35.959Z,9.23
2023-01-07T06:39:37.185Z,9.22
2023-01-07T06:44:38.413Z,9.24
2023-01-07T06:49:39.657Z,9.25
2023-01-07T06:54:40.797Z,9.27
2023-01-07T06:59:42.026Z,9.29
2023-01-07T07:04:43.198Z,9.27
2023-01-07T07:09:44.476Z,9.26
2023-01-07T07:14:45.658Z,9.26
2023-01-07T07:19:46.801Z,9.29
2023-01-07T07:24:47.979Z,9.29
2023-01-07T07:29:49.170Z,9.34
2023-01-07T07:34:50.358Z,9.33
2023-01-07T07:39:51.616Z,9.32
2023-01-07T07:44:52.793Z,9.30
2023-01-07T07:49:54.016Z,9.29
2023-01-07T07:54:55.269Z,9.30
2023-01-07T08:00:16.489Z,9.29
2023-01-07T08:05:17.703Z,9.30
2023-01-07T08:10:19.638Z,9.32
2023-01-07T08:15:20.845Z,9.33
2023-01-07T08:20:22.143Z,9.34
2023-01-07T08:25:23.297Z,9.37
2023-01-07T08:30:24.536Z,9.41
2023-01-07T08:35:25.769Z,9.43
2023-01-07T08:40:27.062Z,9.45
2023-01-07T08:45:28.276Z,9.46
2023-01-07T08:50:29.436Z,9.49
2023-01-07T08:55:30.599Z,9.50
2023-01-07T09:00:31.795Z,9.52
2023-01-07T09:05:35.197Z,9.53
2023-01-07T09:10:36.606Z,9.57
2023-01-07T09:15:37.770Z,9.63
2023-01-07T09:20:38.951Z,9.71
2023-01-07T09:25:40.234Z,9.81
2023-01-07T09:30:41.488Z,9.92
2023-01-07T09:35:42.735Z,10.00
2023-01-07T09:40:43.976Z,10.11
2023-01-07T09:45:45.221Z,10.20
2023-01-07T09:50:46.426Z,10.23
2023-01-07T09:56:10.983Z,10.29
2023-01-07T10:01:09.852Z,10.54
2023-01-07T10:06:11.110Z,10.66
2023-01-07T10:11:12.313Z,10.72
2023-01-07T10:16:13.711Z,10.98
2023-01-07T10:21:14.960Z,10.64
2023-01-07T10:26:16.099Z,10.49
2023-01-07T10:31:17.356Z,10.73
2023-01-07T10:36:18.569Z,11.05
2023-01-07T10:41:19.854Z,11.40
2023-01-07T10:46:21.046Z,11.12
2023-01-07T10:51:23.267Z,10.96
2023-01-07T10:56:24.540Z,10.83
2023-01-07T11:01:25.894Z,10.66
2023-01-07T11:06:27.376Z,10.55
2023-01-07T11:11:28.574Z,10.45
2023-01-07T11:16:29.869Z,10.39
2023-01-07T11:21:42.905Z,10.43
2023-01-07T11:26:45.432Z,10.41
2023-01-07T11:31:46.803Z,10.40
2023-01-07T11:36:48.161Z,10.39
2023-01-07T11:41:49.393Z,10.37
2023-01-07T11:46:50.706Z,10.36
2023-01-07T11:51:51.901Z,10.41
2023-01-07T11:56:55.187Z,10.50
2023-01-07T12:01:56.612Z,10.62
2023-01-07T12:06:57.884Z,10.75
2023-01-07T12:11:59.103Z,10.77
2023-01-07T12:17:00.274Z,10.79
2023-01-07T12:22:01.476Z,10.82
2023-01-07T12:27:02.700Z,10.97
2023-01-07T12:32:03.905Z,11.02
2023-01-07T12:37:05.056Z,11.05
2023-01-07T12:42:06.391Z,11.04
2023-01-07T12:47:30.628Z,10.95
2023-01-07T12:52:28.667Z,10.92
2023-01-07T12:57:29.833Z,11.11
2023-01-07T13:02:32.139Z,11.37
2023-01-07T13:07:33.279Z,11.63
2023-01-07T13:12:43.964Z,11.70
2023-01-07T13:17:47.778Z,11.34
2023-01-07T13:22:48.966Z,11.03
2023-01-07T13:27:50.183Z,10.89
2023-01-07T13:32:51.388Z,10.82
2023-01-07T13:37:52.620Z,10.77
2023-01-07T13:42:53.894Z,10.78
2023-01-07T13:47:55.074Z,10.78
2023-01-07T13:52:56.536Z,10.77
2023-01-07T13:57:57.839Z,10.91
2023-01-07T14:02:59.202Z,11.05
2023-01-07T14:08:00.377Z,11.03
2023-01-07T14:13:01.592Z,10.94
2023-01-07T14:18:02.802Z,10.85
2023-01-07T14:23:03.972Z,10.73
2023-01-07T14:28:05.145Z,10.75
2023-01-07T14:33:06.367Z,10.66
2023-01-07T14:38:07.534Z,10.61
2023-01-07T14:43:08.730Z,10.56
2023-01-07T14:48:10.005Z,10.47
2023-01-07T14:53:11.219Z,10.33
2023-01-07T14:58:12.410Z,10.21
2023-01-07T15:03:13.572Z,10.03
2023-01-07T15:08:33.714Z,9.87
2023-01-07T15:13:53.530Z,9.77
2023-01-07T15:18:54.808Z,9.69
2023-01-07T15:23:56.004Z,9.55
2023-01-07T15:28:57.236Z,9.47
2023-01-07T15:33:58.460Z,9.34
2023-01-07T15:38:59.834Z,9.26
2023-01-07T15:44:01.060Z,9.09
2023-01-07T15:49:02.285Z,8.98
2023-01-07T15:54:03.804Z,8.85
2023-01-07T15:59:04.959Z,8.88
2023-01-07T16:04:07.984Z,8.77
2023-01-07T16:09:09.169Z,8.70
2023-01-07T16:14:10.419Z,8.60
2023-01-07T16:19:11.655Z,8.52
2023-01-07T16:24:12.815Z,8.43
2023-01-07T16:29:14.007Z,8.27
2023-01-07T16:34:15.238Z,8.18
2023-01-07T16:39:16.442Z,8.08
2023-01-07T16:44:17.641Z,8.02
2023-01-07T16:49:18.819Z,7.98
2023-01-07T16:54:20.296Z,7.93
2023-01-07T16:59:21.640Z,7.96
2023-01-07T17:04:22.881Z,8.00
2023-01-07T17:09:24.199Z,8.00
2023-01-07T17:14:25.458Z,7.96
2023-01-07T17:19:26.786Z,7.97
2023-01-07T17:24:28.425Z,8.03
2023-01-07T17:29:29.602Z,8.12
2023-01-07T17:34:30.756Z,8.17
2023-01-07T17:39:32.015Z,8.21
2023-01-07T17:44:33.273Z,8.18
2023-01-07T17:49:34.491Z,8.16
2023-01-07T17:54:36.028Z,8.27
2023-01-07T17:59:37.376Z,8.43
2023-01-07T18:04:38.663Z,8.57
2023-01-07T18:09:42.185Z,8.65
2023-01-07T18:14:43.458Z,8.68
2023-01-07T18:19:44.751Z,8.68
2023-01-07T18:24:46.048Z,8.68
2023-01-07T18:29:47.352Z,8.70
2023-01-07T18:34:48.629Z,8.78
2023-01-07T18:39:49.813Z,8.83
2023-01-07T18:44:50.997Z,8.90
2023-01-07T18:49:52.237Z,8.99
2023-01-07T18:54:53.456Z,9.06
2023-01-07T18:59:54.704Z,9.18
2023-01-07T19:04:55.895Z,9.20
2023-01-07T19:09:57.111Z,9.12
2023-01-07T19:14:58.335Z,9.07
2023-01-07T19:19:59.609Z,9.06
2023-01-07T19:25:00.803Z,9.10
2023-01-07T19:30:02.037Z,9.11
2023-01-07T19:35:03.225Z,9.16
2023-01-07T19:40:04.384Z,9.18
2023-01-07T19:45:06.492Z,9.20
2023-01-07T19:50:08.262Z,9.22
2023-01-07T19:55:09.455Z,9.22
2023-01-07T20:00:10.745Z,9.25
2023-01-07T20:05:12.003Z,9.29
2023-01-07T20:10:13.476Z,9.35
2023-01-07T20:15:14.631Z,9.41
2023-01-07T20:20:15.785Z,9.44
2023-01-07T20:25:16.936Z,9.44
2023-01-07T20:30:18.134Z,9.45
2023-01-07T20:35:19.407Z,9.45
2023-01-07T20:40:20.578Z,9.44
2023-01-07T20:45:21.759Z,9.43
2023-01-07T20:50:22.930Z,9.42
2023-01-07T20:55:24.151Z,9.39
2023-01-07T21:00:25.335Z,9.26
2023-01-07T21:05:26.568Z,9.20
2023-01-07T21:10:27.746Z,9.20
2023-01-07T21:15:28.951Z,9.12
2023-01-07T21:20:30.136Z,9.22
2023-01-07T21:25:31.349Z,9.31
2023-01-07T21:30:32.536Z,9.38
2023-01-07T21:35:33.786Z,9.48
2023-01-07T21:40:35.008Z,9.58
2023-01-07T21:45:36.254Z,9.66
2023-01-07T21:50:37.508Z,9.73
2023-01-07T21:55:39.586Z,9.73
2023-01-07T22:00:40.831Z,9.80
2023-01-07T22:05:42.034Z,9.86
2023-01-07T22:10:43.187Z,9.92
2023-01-07T22:15:44.387Z,9.94
2023-01-07T22:20:45.642Z,10.09
2023-01-07T22:25:46.823Z,10.23
2023-01-07T22:30:48.057Z,10.25
2023-01-07T22:35:49.305Z,10.23
2023-01-07T22:40:50.463Z,10.25
2023-01-07T22:45:51.706Z,10.16
2023-01-07T22:50:52.969Z,10.23
2023-01-07T22:55:54.121Z,10.17
2023-01-07T23:00:55.372Z,10.17
2023-01-07T23:05:56.549Z,10.13
2023-01-07T23:10:57.738Z,10.10
2023-01-07T23:15:58.936Z,10.08
2023-01-07T23:21:00.176Z,10.04
2023-01-07T23:26:01.443Z,10.00
2023-01-07T23:31:02.638Z,10.01
2023-01-07T23:36:03.936Z,9.99
2023-01-07T23:41:05.061Z,9.96
2023-01-07T23:46:06.320Z,9.96
2023-01-07T23:51:07.557Z,9.96
2023-01-07T23:56:08.748Z,9.93
